Time;durP1;ratioP1;P1;durP2;ratioP2;P2;SDS_P1;SDS_P2;PMS_P1;PMS_P2;Temp;Humidity;BMP_temperature;BMP_pressure;BME280_temperature;BME280_humidity;BME280_pressure;Samples;Min_cycle;Max_cycle;Signal;HPM_P1;HPM_P2
2024/03/28 00:02:03;;;;;;;11.00;4.10;;;;;;;8.95;57.91;100181.21;105315;1259;65879;-58
2024/03/28 00:04:31;;;;;;;13.90;8.40;;;;;;;8.96;57.69;100178.15;105320;1254;61190;-58
2024/03/28 00:06:59;;;;;;;9.00;3.60;;;;;;;8.93;57.59;100176.42;105570;1257;63679;-56
2024/03/28 00:09:26;;;;;;;15.00;8.50;;;;;;;8.92;57.55;100178.11;105665;1254;61365;-57
2024/03/28 00:11:54;;;;;;;9.20;3.60;;;;;;;8.91;57.50;100182.00;105262;1254;61458;-58
2024/03/28 00:14:21;;;;;;;7.10;2.80;;;;;;;8.95;57.41;100185.19;105201;1254;65743;-57
2024/03/28 00:16:49;;;;;;;11.00;7.00;;;;;;;9.01;57.32;100180.19;105118;1254;63814;-58
2024/03/28 00:19:17;;;;;;;7.20;3.30;;;;;;;9.08;57.17;100180.70;105175;1254;63735;-58
2024/03/28 00:21:56;;;;;;;6.20;2.80;;;;;;;9.17;57.13;100181.30;105759;1254;61394;-58
2024/03/28 00:24:24;;;;;;;13.60;7.60;;;;;;;9.19;56.97;100178.10;105102;1258;61141;-60
2024/03/28 00:26:52;;;;;;;7.40;2.70;;;;;;;9.22;56.72;100176.70;105099;1259;66326;-57
2024/03/28 00:29:19;;;;;;;9.90;7.20;;;;;;;9.24;56.66;100174.42;105680;1259;61324;-61
2024/03/28 00:31:47;;;;;;;7.40;2.60;;;;;;;9.25;56.55;100175.77;104966;1254;63753;-59
2024/03/28 00:34:14;;;;;;;6.20;3.70;;;;;;;9.25;56.48;100175.20;105004;1257;61238;-58
2024/03/28 00:36:42;;;;;;;12.20;7.90;;;;;;;9.25;56.23;100168.39;104978;1254;62642;-57
2024/03/28 00:39:09;;;;;;;7.30;2.90;;;;;;;9.24;56.11;100164.41;104893;1254;64494;-58
2024/03/28 00:41:37;;;;;;;11.00;7.30;;;;;;;9.24;56.16;100160.39;105089;1255;61411;-57
2024/03/28 00:44:05;;;;;;;7.70;2.80;;;;;;;9.24;56.10;100154.76;105001;1259;63782;-58
2024/03/28 00:46:32;;;;;;;8.50;2.80;;;;;;;9.28;55.99;100154.86;105378;1254;61250;-56
2024/03/28 00:49:00;;;;;;;8.70;2.70;;;;;;;9.35;55.86;100152.05;104882;1254;61282;-56
2024/03/28 00:51:28;;;;;;;10.10;6.90;;;;;;;9.44;55.89;100146.45;104977;1254;64743;-57
2024/03/28 00:53:55;;;;;;;7.00;3.30;;;;;;;9.53;55.81;100144.85;104955;1259;61214;-56
2024/03/28 00:56:23;;;;;;;12.90;7.00;;;;;;;9.61;55.84;100141.20;104921;1260;64687;-57
2024/03/28 00:58:50;;;;;;;6.90;3.00;;;;;;;9.66;55.63;100139.08;104871;1254;62703;-56
2024/03/28 01:01:18;;;;;;;13.30;7.00;;;;;;;9.71;55.36;100133.63;104835;1254;61474;-57
2024/03/28 01:03:46;;;;;;;8.40;2.90;;;;;;;9.74;55.16;100130.55;106472;1254;64431;-55
2024/03/28 01:06:14;;;;;;;10.80;6.50;;;;;;;9.75;54.97;100126.11;104998;1254;61401;-57
2024/03/28 01:08:41;;;;;;;9.30;4.10;;;;;;;9.71;54.85;100130.26;104928;1260;71769;-58
2024/03/28 01:11:09;;;;;;;10.60;6.90;;;;;;;9.69;54.76;100126.36;105215;1254;61142;-57
2024/03/28 01:13:37;;;;;;;8.40;2.80;;;;;;;9.69;54.77;100126.92;106811;1254;59597;-56
2024/03/28 01:16:05;;;;;;;10.70;6.60;;;;;;;9.71;54.62;100123.66;106051;1254;64456;-61
2024/03/28 01:18:33;;;;;;;10.30;3.40;;;;;;;9.69;54.48;100119.39;106299;1258;61435;-57
2024/03/28 01:21:04;;;;;;;10.60;6.70;;;;;;;9.67;54.26;100113.23;105233;1254;62457;-56
2024/03/28 01:23:31;;;;;;;9.00;3.30;;;;;;;9.65;54.24;100112.83;105454;1254;61330;-55
2024/03/28 01:26:02;;;;;;;13.90;6.80;;;;;;;9.65;54.23;100111.29;105007;1254;61266;-57
2024/03/28 01:28:30;;;;;;;9.10;2.70;;;;;;;9.66;53.97;100114.71;104913;1254;64419;-55
2024/03/28 01:31:07;;;;;;;6.40;2.50;;;;;;;9.70;53.62;100118.11;105592;1254;64138;-58
2024/03/28 01:33:34;;;;;;;9.30;5.10;;;;;;;9.76;53.41;100115.35;105202;1256;65569;-58
2024/03/28 01:36:03;;;;;;;9.10;2.60;;;;;;;9.83;53.26;100110.73;105430;1254;61244;-55
2024/03/28 01:38:30;;;;;;;9.80;5.50;;;;;;;9.90;53.12;100108.81;105569;1254;61394;-56
2024/03/28 01:40:58;;;;;;;5.90;2.50;;;;;;;9.91;52.76;100105.16;106287;1254;66319;-57
2024/03/28 01:43:25;;;;;;;13.50;5.80;;;;;;;9.92;52.46;100106.86;105164;1259;62062;-58
2024/03/28 01:45:53;;;;;;;8.50;2.10;;;;;;;9.90;52.27;100115.29;105579;1258;62520;-57
2024/03/28 01:48:20;;;;;;;13.50;5.90;;;;;;;9.89;52.19;100115.37;106509;1254;61349;-56
2024/03/28 01:50:48;;;;;;;5.50;2.60;;;;;;;9.89;52.30;100111.64;105021;1254;61240;-58
2024/03/28 01:53:15;;;;;;;9.50;5.60;;;;;;;9.89;52.06;100110.22;105036;1254;67207;-56
2024/03/28 01:55:43;;;;;;;6.70;3.00;;;;;;;9.88;52.07;100111.04;105009;1254;61536;-58
2024/03/28 01:58:10;;;;;;;15.90;5.90;;;;;;;9.86;52.05;100111.17;105047;1260;62510;-60
2024/03/28 02:00:38;;;;;;;7.20;2.60;;;;;;;9.83;51.90;100106.66;105351;1259;61292;-56
2024/03/28 02:03:05;;;;;;;9.00;6.10;;;;;;;9.80;51.96;100105.86;105198;1259;61167;-59
2024/03/28 02:05:33;;;;;;;7.40;2.70;;;;;;;9.78;52.04;100113.74;105106;1254;74660;-59
2024/03/28 02:08:00;;;;;;;8.30;3.50;;;;;;;9.76;52.04;100114.95;105006;1257;61209;-56
2024/03/28 02:10:28;;;;;;;12.00;6.80;;;;;;;9.74;52.13;100110.20;105070;1259;63845;-59
2024/03/28 02:12:56;;;;;;;7.10;2.90;;;;;;;9.73;52.15;100108.55;105396;1254;62102;-57
2024/03/28 02:15:23;;;;;;;11.10;6.40;;;;;;;9.71;51.99;100103.95;104845;1258;61256;-58
2024/03/28 02:17:51;;;;;;;8.30;3.20;;;;;;;9.68;51.97;100103.17;104905;1254;64435;-58
2024/03/28 02:20:18;;;;;;;10.10;6.30;;;;;;;9.68;52.05;100104.23;105048;1254;62250;-58
2024/03/28 02:22:46;;;;;;;6.60;2.90;;;;;;;9.68;51.95;100102.31;105097;1259;62590;-58
2024/03/28 02:25:13;;;;;;;10.30;6.20;;;;;;;9.66;51.88;100101.10;104983;1257;61307;-59
2024/03/28 02:27:41;;;;;;;6.10;2.80;;;;;;;9.64;51.79;100099.14;105110;1257;61985;-58
2024/03/28 02:30:09;;;;;;;5.20;2.80;;;;;;;9.63;51.69;100098.50;104955;1257;65711;-58
2024/03/28 02:32:37;;;;;;;9.60;5.90;;;;;;;9.62;51.70;100099.83;105044;1254;61517;-61
2024/03/28 02:35:08;;;;;;;9.70;2.30;;;;;;;9.62;51.74;100098.41;106041;1254;64293;-58
2024/03/28 02:37:35;;;;;;;6.70;2.20;;;;;;;9.61;51.74;100093.73;105248;1254;61356;-59
2024/03/28 02:40:03;;;;;;;10.50;5.60;;;;;;;9.60;51.79;100094.67;104947;1259;61247;-61
2024/03/28 02:42:31;;;;;;;6.60;2.10;;;;;;;9.60;51.70;100093.35;105066;1254;64486;-59
2024/03/28 02:44:58;;;;;;;8.50;4.80;;;;;;;9.62;51.52;100097.73;104961;1259;61343;-57
2024/03/28 02:47:26;;;;;;;6.10;2.40;;;;;;;9.67;51.39;100097.69;105043;1259;64050;-58
2024/03/28 02:49:53;;;;;;;8.10;5.00;;;;;;;9.73;51.34;100095.61;104953;1259;62050;-57
2024/03/28 02:52:21;;;;;;;6.70;2.50;;;;;;;9.77;51.17;100094.92;105582;1260;61118;-62
2024/03/28 02:54:48;;;;;;;7.90;4.40;;;;;;;9.80;51.04;100088.21;104964;1254;65740;-58
2024/03/28 02:57:22;;;;;;;4.20;1.60;;;;;;;9.82;51.07;100084.14;104921;1254;61326;-59
2024/03/28 02:59:50;;;;;;;11.00;5.10;;;;;;;9.84;50.88;100085.03;106054;1258;62456;-58
2024/03/28 03:02:17;;;;;;;9.00;2.80;;;;;;;9.84;50.59;100081.74;104934;1254;61354;-58
2024/03/28 03:04:45;;;;;;;9.80;5.20;;;;;;;9.82;50.58;100083.48;105047;1259;61362;-62
2024/03/28 03:07:13;;;;;;;7.40;2.20;;;;;;;9.80;50.53;100086.91;106025;1254;65782;-65
2024/03/28 03:09:41;;;;;;;9.70;5.10;;;;;;;9.80;50.61;100082.21;105442;1258;61368;-60
2024/03/28 03:12:09;;;;;;;5.90;2.10;;;;;;;9.80;50.59;100077.48;106147;1254;64201;-58
2024/03/28 03:14:36;;;;;;;10.30;5.10;;;;;;;9.79;50.52;100071.13;105007;1255;61300;-61
2024/03/28 03:17:04;;;;;;;6.30;1.80;;;;;;;9.77;50.63;100075.15;105357;1254;61335;-57
2024/03/28 03:19:32;;;;;;;13.30;5.60;;;;;;;9.75;50.52;100071.29;105195;1260;65822;-58
2024/03/28 03:22:00;;;;;;;10.40;2.40;;;;;;;9.72;50.56;100066.59;105035;1254;61591;-58
2024/03/28 03:24:34;;;;;;;14.50;5.60;;;;;;;9.67;50.62;100061.90;105768;1255;64757;-59
2024/03/28 03:27:04;;;;;;;7.40;2.80;;;;;;;9.65;50.64;100066.95;106886;1259;61359;-62
2024/03/28 03:35:05;;;;;;;9.60;2.30;;;;;;;9.62;50.56;100072.34;105135;1259;61350;-54
2024/03/28 03:37:35;;;;;;;13.10;6.20;;;;;;;9.60;50.46;100069.02;105326;1254;63764;-58
2024/03/28 03:40:08;;;;;;;7.30;3.00;;;;;;;9.58;50.46;100067.93;105279;1259;61470;-54
2024/03/28 03:42:36;;;;;;;13.60;6.20;;;;;;;9.57;50.37;100063.77;105330;1254;61288;-57
2024/03/28 03:45:04;;;;;;;11.50;4.30;;;;;;;9.57;50.32;100060.98;105132;1254;65728;-56
2024/03/28 03:47:31;;;;;;;6.70;2.30;;;;;;;9.59;50.31;100059.42;106251;1256;61198;-54
2024/03/28 03:49:59;;;;;;;10.30;5.70;;;;;;;9.60;50.22;100048.70;105517;1254;62461;-56
2024/03/28 03:52:26;;;;;;;8.50;2.70;;;;;;;9.61;50.18;100045.81;105095;1256;61455;-59
2024/03/28 03:54:54;;;;;;;13.00;6.20;;;;;;;9.62;50.12;100040.98;105100;1254;61346;-54
2024/03/28 03:57:22;;;;;;;6.50;2.20;;;;;;;9.62;50.07;100035.15;105621;1254;65763;-58
2024/03/28 03:59:49;;;;;;;6.00;2.10;;;;;;;9.61;50.13;100030.02;105228;1254;61305;-57
2024/03/28 04:02:17;;;;;;;11.00;4.90;;;;;;;9.60;50.20;100028.19;105074;1254;63800;-57
2024/03/28 04:04:44;;;;;;;7.10;2.60;;;;;;;9.60;50.23;100028.83;105038;1255;62004;-57
2024/03/28 04:07:11;;;;;;;7.80;4.40;;;;;;;9.61;50.24;100030.05;105175;1260;61270;-58
2024/03/28 04:09:39;;;;;;;8.60;2.50;;;;;;;9.62;50.25;100029.23;105906;1255;65709;-57
2024/03/28 04:12:06;;;;;;;8.30;2.20;;;;;;;9.63;50.24;100023.36;105438;1254;61618;-55
2024/03/28 04:14:34;;;;;;;8.30;4.70;;;;;;;9.64;50.18;100020.46;104951;1255;63786;-59
2024/03/28 04:17:06;;;;;;;11.40;3.50;;;;;;;9.65;50.14;100020.60;105298;1255;61397;-57
2024/03/28 04:19:34;;;;;;;8.70;4.60;;;;;;;9.65;49.93;100020.74;105169;1259;61343;-57
2024/03/28 04:22:02;;;;;;;6.10;2.60;;;;;;;9.64;49.90;100019.07;105550;1259;64423;-57
2024/03/28 04:24:29;;;;;;;6.20;2.50;;;;;;;9.63;49.85;100017.42;105595;1254;61866;-58
2024/03/28 04:26:57;;;;;;;13.20;5.20;;;;;;;9.63;49.86;100014.45;105192;1254;63683;-61
2024/03/28 04:29:25;;;;;;;10.50;3.50;;;;;;;9.63;49.68;100016.04;105211;1259;61263;-61
2024/03/28 04:31:52;;;;;;;11.50;4.90;;;;;;;9.63;49.57;100015.83;106640;1259;61933;-58
2024/03/28 04:34:20;;;;;;;9.50;3.70;;;;;;;9.63;49.53;100016.86;105406;1254;64469;-60
2024/03/28 04:36:47;;;;;;;9.10;4.50;;;;;;;9.64;49.47;100018.16;105271;1254;61961;-58
2024/03/28 04:39:15;;;;;;;7.30;2.60;;;;;;;9.66;49.42;100015.71;105122;1255;63773;-59
2024/03/28 04:41:43;;;;;;;11.10;4.90;;;;;;;9.68;49.43;100010.86;104902;1259;61506;-60
2024/03/28 04:44:11;;;;;;;6.40;2.00;;;;;;;9.69;49.42;100012.95;105215;1259;61228;-60
2024/03/28 04:46:38;;;;;;;9.60;4.80;;;;;;;9.69;49.51;100009.21;106185;1259;65720;-60
2024/03/28 04:49:06;;;;;;;6.40;1.90;;;;;;;9.71;49.46;100015.23;106234;1259;61597;-62
2024/03/28 04:51:33;;;;;;;10.00;5.80;;;;;;;9.71;49.41;100014.88;106110;1254;63732;-59
2024/03/28 04:54:00;;;;;;;6.90;2.30;;;;;;;9.71;49.47;100010.30;105137;1254;61234;-62
2024/03/28 04:56:28;;;;;;;8.80;5.20;;;;;;;9.71;49.31;100010.67;105240;1255;312980;-59
2024/03/28 05:00:00;;;;;;;5.90;2.10;;;;;;;9.42;49.99;99997.94;102096;1295;601144;-61
2024/03/28 05:02:28;;;;;;;10.40;5.00;;;;;;;9.69;49.21;99996.58;104706;1267;61278;-58
2024/03/28 05:04:55;;;;;;;6.40;1.90;;;;;;;9.73;49.10;99996.14;105316;1268;59639;-62
2024/03/28 05:07:23;;;;;;;8.50;4.50;;;;;;;9.75;49.17;99990.48;105281;1269;63380;-61
2024/03/28 05:09:51;;;;;;;7.00;2.90;;;;;;;9.80;49.04;99988.02;104192;1273;60132;-62
2024/03/28 05:12:19;;;;;;;10.00;4.60;;;;;;;9.83;48.75;99988.11;105582;1267;63767;-59
2024/03/28 05:14:46;;;;;;;5.10;1.60;;;;;;;9.85;48.65;99981.04;103791;1270;433761;-58
2024/03/28 05:17:14;;;;;;;6.60;4.10;;;;;;;9.88;48.52;99976.82;105084;1265;59755;-61
2024/03/28 05:19:41;;;;;;;4.90;2.10;;;;;;;9.91;48.55;99978.66;104322;1266;64235;-58
2024/03/28 05:22:09;;;;;;;8.60;4.30;;;;;;;9.94;48.59;99975.64;104767;1267;60241;-63
2024/03/28 05:24:36;;;;;;;6.10;2.70;;;;;;;9.96;48.53;99975.23;104952;1270;63545;-59
2024/03/28 05:27:04;;;;;;;9.00;4.30;;;;;;;9.98;48.39;99977.56;104424;1268;60396;-61
2024/03/28 05:29:31;;;;;;;5.50;2.10;;;;;;;9.98;48.38;99974.37;104336;1270;60913;-59
2024/03/28 05:31:59;;;;;;;9.20;4.70;;;;;;;9.99;48.40;99973.45;103950;1270;72635;-60
2024/03/28 05:34:26;;;;;;;4.90;2.10;;;;;;;10.00;48.35;99971.56;103801;1267;61957;-61
2024/03/28 05:36:54;;;;;;;9.90;4.60;;;;;;;10.03;48.39;99969.25;104357;1271;64308;-60
2024/03/28 05:39:22;;;;;;;5.40;2.10;;;;;;;10.05;48.39;99976.27;105769;1257;60629;-67
2024/03/28 05:41:49;;;;;;;11.20;4.70;;;;;;;10.07;48.25;99971.57;106079;1256;61021;-68
2024/03/28 05:44:17;;;;;;;8.80;2.50;;;;;;;10.08;48.20;99966.02;104874;1256;67028;-68
2024/03/28 05:46:44;;;;;;;12.30;4.80;;;;;;;10.10;48.22;99961.88;108838;1257;63154;-59
2024/03/28 05:49:12;;;;;;;10.40;4.20;;;;;;;10.13;48.12;99961.39;108870;1256;63762;-60
2024/03/28 05:51:39;;;;;;;6.60;2.20;;;;;;;10.18;48.27;99957.10;108849;1257;58613;-61
2024/03/28 05:54:07;;;;;;;10.30;5.00;;;;;;;10.23;48.09;99954.05;106824;1257;60450;-56
2024/03/28 05:56:34;;;;;;;6.60;2.70;;;;;;;10.28;47.80;99951.23;104877;1258;64862;-68
2024/03/28 05:59:05;;;;;;;14.80;6.00;;;;;;;10.32;47.73;99951.42;104769;1256;60382;-68
2024/03/28 06:01:32;;;;;;;13.20;6.30;;;;;;;10.36;47.79;99952.14;104791;1256;62489;-61
2024/03/28 06:04:00;;;;;;;9.60;2.80;;;;;;;10.39;47.70;99950.61;104750;1257;60450;-60
2024/03/28 06:06:27;;;;;;;14.20;5.10;;;;;;;10.42;47.71;99948.80;108895;1256;58414;-62
2024/03/28 06:08:55;;;;;;;5.20;2.10;;;;;;;10.45;47.69;99948.86;105649;1257;64940;-62
2024/03/28 06:11:22;;;;;;;12.90;5.70;;;;;;;10.48;47.68;99940.04;105564;1260;60487;-61
2024/03/28 06:13:54;;;;;;;5.30;1.80;;;;;;;10.49;47.50;99936.25;104933;1260;71777;-66
2024/03/28 06:16:21;;;;;;;11.20;5.00;;;;;;;10.51;47.60;99933.61;106288;1257;60531;-67
2024/03/28 06:18:48;;;;;;;5.50;1.70;;;;;;;10.53;47.62;99928.55;105039;1260;60438;-66
2024/03/28 06:21:16;;;;;;;13.30;4.90;;;;;;;10.57;47.57;99927.89;104824;1256;64895;-65
2024/03/28 06:23:43;;;;;;;8.50;2.50;;;;;;;10.60;47.52;99923.89;105104;1260;60431;-61
2024/03/28 06:26:11;;;;;;;9.80;5.10;;;;;;;10.65;47.50;99920.85;105124;1257;63850;-63
2024/03/28 06:28:39;;;;;;;10.70;4.30;;;;;;;10.71;47.41;99920.36;105873;1257;60550;-62
2024/03/28 06:31:07;;;;;;;4.90;2.00;;;;;;;10.77;47.18;99912.26;104975;1257;60591;-56
2024/03/28 06:33:34;;;;;;;9.80;4.40;;;;;;;10.82;47.19;99903.79;105877;1256;63656;-62
2024/03/28 06:36:04;;;;;;;9.40;4.10;;;;;;;10.89;47.08;99902.08;104762;1258;72607;-64
2024/03/28 06:38:32;;;;;;;6.10;2.30;;;;;;;10.96;47.06;99899.68;104906;1256;66361;-62
2024/03/28 06:41:01;;;;;;;10.10;4.30;;;;;;;11.02;46.81;99903.42;105472;1260;60456;-64
2024/03/28 06:43:29;;;;;;;8.80;4.30;;;;;;;11.07;46.59;99899.60;105536;1257;61710;-68
2024/03/28 06:45:56;;;;;;;5.80;1.90;;;;;;;11.14;46.39;99895.66;105019;1257;64984;-64
2024/03/28 06:48:24;;;;;;;10.90;4.40;;;;;;;11.20;46.26;99888.80;105282;1257;60993;-61
2024/03/28 06:50:51;;;;;;;7.80;3.60;;;;;;;11.25;46.07;99885.19;104881;1260;62583;-61
2024/03/28 06:53:19;;;;;;;8.80;3.80;;;;;;;11.29;46.18;99882.30;104910;1261;60552;-66
2024/03/28 06:55:46;;;;;;;9.80;3.80;;;;;;;11.32;45.67;99876.56;104865;1256;60619;-63
2024/03/28 06:58:14;;;;;;;4.80;1.60;;;;;;;11.37;45.57;99871.65;105980;1256;64034;-65
2024/03/28 07:00:41;;;;;;;12.60;4.30;;;;;;;11.40;45.70;99868.40;104957;1256;60617;-61
2024/03/28 07:03:09;;;;;;;8.40;4.00;;;;;;;11.44;45.60;99865.51;104740;1256;62451;-59
2024/03/28 07:05:37;;;;;;;9.80;3.50;;;;;;;11.48;45.29;99862.32;104576;1260;60457;-57
2024/03/28 07:08:05;;;;;;;8.90;2.20;;;;;;;11.57;45.26;99862.94;107586;1257;58371;-62
2024/03/28 07:10:33;;;;;;;11.10;3.80;;;;;;;11.67;45.24;99860.41;106998;1254;64919;-57
2024/03/28 07:13:01;;;;;;;11.00;4.00;;;;;;;11.79;45.10;99862.84;104932;1254;60517;-59
2024/03/28 07:15:30;;;;;;;9.00;2.00;;;;;;;11.91;44.98;99866.47;105048;1257;63972;-62
2024/03/28 07:17:58;;;;;;;6.90;2.60;;;;;;;12.01;44.14;99860.05;106420;1257;60440;-58
2024/03/28 07:20:26;;;;;;;7.60;3.80;;;;;;;12.09;43.35;99853.55;106110;1259;60403;-62
2024/03/28 07:22:56;;;;;;;8.40;3.30;;;;;;;12.18;43.32;99850.95;105204;1255;67068;-59
2024/03/28 07:25:24;;;;;;;7.20;3.20;;;;;;;12.28;43.41;99846.31;105551;1254;63410;-63
2024/03/28 07:27:52;;;;;;;7.50;3.10;;;;;;;12.41;43.07;99844.18;108847;1254;75240;-58
2024/03/28 07:30:19;;;;;;;8.40;3.00;;;;;;;12.53;42.83;99843.73;108898;1256;58411;-60
2024/03/28 07:32:48;;;;;;;5.20;2.20;;;;;;;12.67;42.67;99840.81;108975;1256;59907;-60
2024/03/28 07:35:16;;;;;;;6.90;2.30;;;;;;;12.78;42.23;99834.04;108855;1255;64198;-59
2024/03/28 07:37:43;;;;;;;5.90;2.60;;;;;;;12.90;41.66;99832.79;108905;1256;60329;-57
2024/03/28 07:40:11;;;;;;;8.50;2.20;;;;;;;12.98;41.64;99830.32;107528;1256;66415;-59
2024/03/28 07:42:38;;;;;;;6.90;2.80;;;;;;;13.08;41.82;99827.27;104865;1256;60932;-67
2024/03/28 07:45:06;;;;;;;6.50;2.80;;;;;;;13.16;41.48;99827.87;105478;1257;60435;-60
2024/03/28 07:47:34;;;;;;;5.80;2.40;;;;;;;13.21;41.37;99824.36;105104;1256;64178;-59
2024/03/28 07:50:02;;;;;;;6.20;2.40;;;;;;;13.26;41.26;99828.87;105463;1256;61880;-60
2024/03/28 07:52:30;;;;;;;6.20;2.60;;;;;;;13.28;41.14;99826.86;105192;1261;62648;-59
2024/03/28 07:54:58;;;;;;;4.70;2.30;;;;;;;13.30;41.23;99827.70;104917;1254;60448;-65
2024/03/28 07:57:25;;;;;;;7.00;2.70;;;;;;;13.33;41.37;99827.27;104732;1260;60716;-60
2024/03/28 07:59:53;;;;;;;6.10;2.30;;;;;;;13.38;41.61;99827.44;104642;1260;65440;-60
2024/03/28 08:02:25;;;;;;;9.80;2.30;;;;;;;13.45;41.24;99824.49;104891;1257;62357;-59
2024/03/28 08:04:53;;;;;;;8.50;2.80;;;;;;;13.49;41.13;99822.09;104809;1260;62925;-60
2024/03/28 08:07:24;;;;;;;7.50;2.70;;;;;;;13.54;41.36;99817.89;104853;1257;60569;-60
2024/03/28 08:09:51;;;;;;;7.70;2.30;;;;;;;13.58;41.10;99814.41;107056;1255;60691;-61
2024/03/28 08:12:19;;;;;;;5.90;2.50;;;;;;;13.59;41.32;99816.73;105354;1254;76280;-58
2024/03/28 08:14:46;;;;;;;9.00;2.40;;;;;;;13.63;41.72;99812.95;104830;1257;60670;-60
2024/03/28 08:17:14;;;;;;;5.60;2.60;;;;;;;13.68;41.43;99811.63;104723;1260;74936;-61
2024/03/28 08:19:42;;;;;;;5.40;2.50;;;;;;;13.68;40.96;99809.30;104807;1258;60462;-64
2024/03/28 08:22:10;;;;;;;6.20;2.70;;;;;;;13.66;41.21;99810.19;104807;1261;60584;-62
2024/03/28 08:24:38;;;;;;;5.90;2.20;;;;;;;13.70;41.93;99816.89;105773;1257;76160;-61
2024/03/28 08:27:07;;;;;;;5.80;2.40;;;;;;;13.77;41.99;99806.64;104839;1260;70799;-60
2024/03/28 08:29:35;;;;;;;6.10;2.00;;;;;;;13.84;42.01;99800.44;104863;1257;75222;-63
2024/03/28 08:32:02;;;;;;;8.10;2.70;;;;;;;13.92;42.00;99799.48;105155;1260;60537;-60
2024/03/28 08:34:30;;;;;;;8.40;2.80;;;;;;;14.00;41.82;99798.61;105811;1256;60576;-60
2024/03/28 08:36:58;;;;;;;5.30;2.10;;;;;;;14.09;41.73;99799.94;105565;1256;65053;-57
2024/03/28 08:39:25;;;;;;;5.30;2.10;;;;;;;14.19;41.85;99802.95;108842;1254;72591;-60
2024/03/28 08:41:53;;;;;;;11.70;2.80;;;;;;;14.29;41.91;99801.16;104994;1260;62917;-61
2024/03/28 08:44:21;;;;;;;6.50;2.60;;;;;;;14.42;42.19;99797.20;108950;1256;58439;-58
2024/03/28 08:46:48;;;;;;;5.80;2.30;;;;;;;14.54;41.37;99798.64;107657;1256;59274;-57
2024/03/28 08:49:16;;;;;;;8.30;2.50;;;;;;;14.62;40.90;99796.60;105099;1260;64067;-61
2024/03/28 08:51:44;;;;;;;5.70;2.50;;;;;;;14.66;40.90;99792.52;105154;1256;72630;-59
2024/03/28 08:54:12;;;;;;;5.90;2.70;;;;;;;14.69;40.83;99790.18;105036;1256;72686;-60
2024/03/28 08:56:41;;;;;;;6.10;2.60;;;;;;;14.70;41.08;99788.67;105077;1256;62288;-61
2024/03/28 08:59:10;;;;;;;7.10;2.60;;;;;;;14.72;41.20;99781.74;105716;1256;60591;-61
2024/03/28 09:01:38;;;;;;;6.70;2.70;;;;;;;14.79;41.73;99778.17;105197;1260;65442;-57
2024/03/28 09:04:07;;;;;;;6.10;2.40;;;;;;;14.90;41.66;99767.11;105047;1256;61790;-55
2024/03/28 09:06:34;;;;;;;6.10;2.40;;;;;;;15.01;41.72;99759.50;106126;1260;64931;-56
2024/03/28 09:09:02;;;;;;;8.80;2.50;;;;;;;15.13;41.89;99755.88;105247;1260;61216;-57
2024/03/28 09:11:30;;;;;;;6.50;2.70;;;;;;;15.27;41.99;99746.67;105168;1256;61352;-60
2024/03/28 09:13:57;;;;;;;7.00;2.00;;;;;;;15.41;41.92;99741.39;105042;1260;68448;-59
2024/03/28 09:16:26;;;;;;;4.50;2.10;;;;;;;15.56;41.85;99735.98;105309;1254;64783;-60
2024/03/28 09:18:53;;;;;;;6.70;2.20;;;;;;;15.70;41.61;99731.06;105574;1260;65091;-59
2024/03/28 09:21:21;;;;;;;6.60;2.40;;;;;;;15.82;41.50;99735.63;105128;1256;61390;-58
2024/03/28 09:23:48;;;;;;;7.70;2.80;;;;;;;15.94;41.58;99734.41;105839;1256;62197;-55
2024/03/28 09:26:19;;;;;;;6.80;2.20;;;;;;;16.08;41.63;99727.95;106549;1256;74029;-58
2024/03/28 09:28:49;;;;;;;8.00;2.40;;;;;;;16.20;41.48;99722.52;105025;1257;61337;-55
2024/03/28 09:31:17;;;;;;;8.20;2.50;;;;;;;16.31;41.31;99724.23;104984;1260;62975;-60
2024/03/28 09:33:45;;;;;;;6.10;2.50;;;;;;;16.41;41.10;99720.41;105015;1256;61906;-56
2024/03/28 09:36:13;;;;;;;6.90;2.50;;;;;;;16.49;41.14;99719.50;105615;1263;61428;-56
2024/03/28 09:38:50;;;;;;;6.20;2.40;;;;;;;16.56;40.97;99705.43;105229;1257;76779;-54
2024/03/28 09:41:28;;;;;;;10.10;2.90;;;;;;;16.61;41.03;99713.73;104935;1256;61888;-57
2024/03/28 09:44:18;;;;;;;8.70;2.50;;;;;;;16.65;41.12;99712.34;105575;1257;64054;-64
2024/03/28 09:46:49;;;;;;;6.60;2.60;;;;;;;16.73;41.19;99710.67;105101;1259;61274;-65
2024/03/28 09:49:23;;;;;;;7.10;2.50;;;;;;;16.83;41.05;99706.58;105101;1255;62230;-57
2024/03/28 09:51:52;;;;;;;9.80;2.40;;;;;;;16.91;41.35;99705.36;106530;1255;64551;-58
2024/03/28 09:54:20;;;;;;;5.50;1.90;;;;;;;17.01;41.27;99702.41;105646;1260;61246;-56
2024/03/28 09:56:47;;;;;;;6.60;2.20;;;;;;;17.12;41.02;99695.63;104993;1260;73868;-58
2024/03/28 09:59:15;;;;;;;7.00;2.70;;;;;;;17.20;40.99;99692.67;105054;1256;61381;-58
2024/03/28 10:01:42;;;;;;;5.80;2.40;;;;;;;17.27;41.25;99693.06;104899;1261;61162;-57
2024/03/28 10:04:13;;;;;;;7.10;2.90;;;;;;;17.35;41.03;99683.57;105136;1256;76990;-60
2024/03/28 10:06:47;;;;;;;7.70;2.50;;;;;;;17.41;40.60;99682.94;105020;1257;72696;-60
2024/03/28 10:09:15;;;;;;;7.90;2.80;;;;;;;17.45;41.14;99681.33;105046;1256;65943;-62
2024/03/28 10:11:43;;;;;;;10.20;2.60;;;;;;;17.53;41.22;99677.91;104965;1260;61228;-61
2024/03/28 10:14:22;;;;;;;8.20;2.90;;;;;;;17.62;41.20;99684.32;106157;1257;61420;-63
2024/03/28 10:16:58;;;;;;;7.20;3.00;;;;;;;17.74;41.35;99685.65;105002;1256;67925;-61
2024/03/28 10:19:28;;;;;;;8.30;2.30;;;;;;;17.87;41.13;99684.09;106384;1255;61264;-63
2024/03/28 10:22:10;;;;;;;8.20;2.70;;;;;;;17.99;40.72;99682.52;105049;1256;63855;-64
2024/03/28 10:24:46;;;;;;;8.20;2.50;;;;;;;18.09;40.14;99676.61;106109;1259;61398;-63
2024/03/28 10:27:18;;;;;;;7.30;2.40;;;;;;;18.13;39.39;99673.45;105671;1257;61424;-60
2024/03/28 10:29:53;;;;;;;12.40;2.70;;;;;;;18.10;39.56;99670.27;105672;1257;64747;-63
2024/03/28 10:32:21;;;;;;;8.10;3.30;;;;;;;18.10;39.99;99674.24;105010;1261;70615;-60
2024/03/28 10:34:49;;;;;;;8.50;3.50;;;;;;;18.17;40.33;99666.11;105469;1256;66027;-62
2024/03/28 10:37:18;;;;;;;6.90;2.50;;;;;;;18.28;40.13;99657.45;105736;1260;61283;-60
2024/03/28 10:39:46;;;;;;;8.90;2.40;;;;;;;18.39;40.00;99646.52;105951;1256;59629;-60
2024/03/28 10:42:14;;;;;;;7.50;2.20;;;;;;;18.47;39.67;99649.55;105311;1256;76910;-64
2024/03/28 10:44:46;;;;;;;7.80;3.40;;;;;;;18.53;39.40;99644.89;105861;1256;63809;-63
2024/03/28 10:47:15;;;;;;;6.50;2.80;;;;;;;18.59;39.37;99645.62;105913;1257;73528;-64
2024/03/28 10:49:46;;;;;;;8.20;3.00;;;;;;;18.66;39.36;99640.14;105401;1258;61196;-60
2024/03/28 10:52:23;;;;;;;6.90;2.50;;;;;;;18.74;39.40;99641.08;106016;1256;61292;-63
2024/03/28 10:54:55;;;;;;;10.30;2.60;;;;;;;18.83;39.43;99636.55;105629;1260;64982;-64
2024/03/28 10:57:22;;;;;;;8.30;3.00;;;;;;;18.94;39.62;99637.69;105506;1261;73167;-63
2024/03/28 10:59:50;;;;;;;8.80;2.60;;;;;;;19.04;39.30;99630.67;104701;1256;63026;-62
2024/03/28 11:02:18;;;;;;;7.70;3.50;;;;;;;19.13;39.13;99625.34;105669;1258;61279;-59
2024/03/28 11:04:45;;;;;;;9.80;3.00;;;;;;;19.17;38.75;99619.12;104934;1257;61370;-64
2024/03/28 11:07:13;;;;;;;7.40;3.50;;;;;;;19.17;38.60;99614.16;105159;1257;66133;-62
2024/03/28 11:09:43;;;;;;;9.70;4.20;;;;;;;19.17;38.75;99609.93;104973;1260;72389;-62
2024/03/28 11:12:10;;;;;;;11.30;4.00;;;;;;;19.17;38.90;99606.45;105015;1254;64654;-60
2024/03/28 11:14:38;;;;;;;8.60;4.60;;;;;;;19.24;39.11;99608.94;105025;1260;61231;-61
2024/03/28 11:17:05;;;;;;;11.40;6.50;;;;;;;19.32;39.03;99601.84;105980;1259;61611;-63
2024/03/28 11:19:33;;;;;;;15.80;6.40;;;;;;;19.40;38.87;99598.05;105025;1258;64921;-62
2024/03/28 11:22:02;;;;;;;9.80;3.80;;;;;;;19.44;38.85;99596.22;105156;1256;61967;-61
2024/03/28 11:24:30;;;;;;;12.60;3.30;;;;;;;19.47;38.55;99594.02;104759;1261;66059;-61
2024/03/28 11:26:58;;;;;;;9.70;4.20;;;;;;;19.50;38.50;99595.29;108938;1256;59433;-65
2024/03/28 11:29:26;;;;;;;5.70;2.70;;;;;;;19.52;38.49;99592.74;108921;1256;59399;-67
2024/03/28 11:31:57;;;;;;;6.30;2.80;;;;;;;19.55;38.54;99585.08;106480;1256;65768;-62
2024/03/28 11:34:26;;;;;;;6.50;2.50;;;;;;;19.57;38.78;99578.18;105579;1258;72747;-63
2024/03/28 11:36:54;;;;;;;6.00;2.60;;;;;;;19.56;38.44;99579.75;107118;1257;75101;-61